Time;durP1;ratioP1;P1;durP2;ratioP2;P2;SDS_P1;SDS_P2;PMS_P1;PMS_P2;Temp;Humidity;BMP_temperature;BMP_pressure;BME280_temperature;BME280_humidity;BME280_pressure;Samples;Min_cycle;Max_cycle;Signal;HPM_P1;HPM_P2
2024/01/06 00:00:45;;;;;;;71.18;36.20;;;;;;;23.25;100.00;56616.03;5015042;28;20295;-70
2024/01/06 00:03:13;;;;;;;69.32;37.45;;;;;;;23.25;100.00;56616.03;5011025;28;20220;-70
2024/01/06 00:05:40;;;;;;;88.03;40.05;;;;;;;;;;5011891;28;20218;-70
2024/01/06 00:08:07;;;;;;;65.68;36.60;;;;;;;23.25;100.00;56616.03;5014575;28;20212;-69
2024/01/06 00:10:33;;;;;;;73.88;35.47;;;;;;;;;;5014155;28;20200;-69
2024/01/06 00:13:00;;;;;;;60.47;33.53;;;;;;;23.25;100.00;56616.03;5014427;28;20289;-70
2024/01/06 00:15:26;;;;;;;67.50;34.80;;;;;;;23.25;100.00;56616.03;5015289;28;20208;-70
2024/01/06 00:17:54;;;;;;;65.28;34.30;;;;;;;-142.91;100.00;56616.03;5017773;28;20250;-72
2024/01/06 00:20:21;;;;;;;82.30;35.83;;;;;;;23.25;100.00;56616.03;5013902;28;20299;-72
2024/01/06 00:22:48;;;;;;;66.72;34.50;;;;;;;-142.91;100.00;56616.03;5012681;28;20362;-72
2024/01/06 00:25:14;;;;;;;64.18;33.28;;;;;;;23.25;100.00;56616.03;5009960;28;20295;-73
2024/01/06 00:27:41;;;;;;;68.75;34.10;;;;;;;23.25;100.00;56616.03;5012701;28;20235;-69
2024/01/06 00:30:08;;;;;;;77.28;31.90;;;;;;;23.25;100.00;56616.03;5015508;28;20302;-69
2024/01/06 00:32:34;;;;;;;78.13;33.20;;;;;;;;;;5020633;28;20287;-69
2024/01/06 00:35:03;;;;;;;74.72;37.55;;;;;;;-142.91;100.00;56616.03;5018848;28;20764;-69
2024/01/06 00:37:29;;;;;;;73.40;38.50;;;;;;;23.25;100.00;56616.03;5015361;28;20208;-68
2024/01/06 00:39:56;;;;;;;74.43;39.40;;;;;;;;;;5012645;28;20789;-70
2024/01/06 00:42:22;;;;;;;73.47;39.05;;;;;;;23.25;100.00;56616.03;5012834;28;20290;-69
2024/01/06 00:44:49;;;;;;;84.78;37.38;;;;;;;23.25;100.00;56616.03;5016251;28;20304;-69
2024/01/06 00:47:15;;;;;;;81.95;38.05;;;;;;;-142.91;100.00;56616.03;5016473;28;20294;-69
2024/01/06 00:49:42;;;;;;;70.30;37.60;;;;;;;;;;5019357;28;20697;-68
2024/01/06 00:52:10;;;;;;;67.88;36.22;;;;;;;-142.91;100.00;56616.03;5017291;28;20656;-70
2024/01/06 00:54:36;;;;;;;72.85;34.47;;;;;;;23.25;100.00;56616.03;5017970;28;20402;-70
2024/01/06 00:57:04;;;;;;;68.82;34.08;;;;;;;23.25;100.00;56616.03;5017346;28;20647;-70
2024/01/06 00:59:31;;;;;;;64.70;32.90;;;;;;;-142.91;100.00;56616.03;5015926;28;20236;-69
2024/01/06 01:01:58;;;;;;;76.38;35.63;;;;;;;-142.91;100.00;56616.03;5012299;28;20299;-69
2024/01/06 01:04:24;;;;;;;75.57;36.03;;;;;;;-142.91;100.00;56616.03;5012229;28;20315;-69
2024/01/06 01:06:51;;;;;;;74.30;34.05;;;;;;;;;;5019558;28;20295;-69
2024/01/06 01:09:18;;;;;;;54.97;30.23;;;;;;;23.25;100.00;56616.03;5012648;28;20331;-69
2024/01/06 01:11:45;;;;;;;66.45;32.83;;;;;;;-142.91;100.00;56616.03;5019460;28;20689;-70
2024/01/06 01:14:12;;;;;;;61.80;30.80;;;;;;;23.25;100.00;56616.03;5012158;28;20232;-70
2024/01/06 01:16:38;;;;;;;63.90;31.70;;;;;;;23.25;100.00;56616.03;5015776;28;20228;-70
2024/01/06 01:19:05;;;;;;;61.30;31.27;;;;;;;23.25;100.00;56616.03;5014286;28;20232;-70
2024/01/06 01:21:32;;;;;;;65.57;30.85;;;;;;;-142.91;100.00;56616.03;5016470;28;20310;-69
2024/01/06 01:23:58;;;;;;;66.07;32.30;;;;;;;-142.91;100.00;56616.03;5017998;28;20219;-69
2024/01/06 01:26:26;;;;;;;64.15;31.20;;;;;;;;;;5017196;28;20291;-70
2024/01/06 01:28:53;;;;;;;59.22;30.02;;;;;;;-142.91;100.00;56616.03;5019294;28;20287;-70
2024/01/06 01:31:20;;;;;;;60.60;30.17;;;;;;;23.25;100.00;56616.03;5016871;28;20291;-69
2024/01/06 01:33:46;;;;;;;59.20;29.50;;;;;;;23.25;100.00;56616.03;5015350;28;20228;-69
2024/01/06 01:36:13;;;;;;;59.13;32.05;;;;;;;;;;5017342;28;20761;-70
2024/01/06 01:38:40;;;;;;;67.43;30.15;;;;;;;;;;5010101;28;20276;-70
2024/01/06 01:41:06;;;;;;;70.18;31.70;;;;;;;;;;5011392;28;20291;-70
2024/01/06 01:43:34;;;;;;;60.55;31.95;;;;;;;-142.91;100.00;56616.03;5017679;28;20343;-70
2024/01/06 01:46:01;;;;;;;56.50;31.60;;;;;;;;;;5016698;28;21817;-70
2024/01/06 01:48:27;;;;;;;63.28;32.70;;;;;;;;;;5015722;28;20207;-69
2024/01/06 01:50:55;;;;;;;57.00;32.63;;;;;;;23.25;100.00;56616.03;5016325;28;20362;-71
2024/01/06 01:53:23;;;;;;;66.30;30.35;;;;;;;-142.91;100.00;56616.03;5020923;28;20204;-70
2024/01/06 01:55:51;;;;;;;63.08;31.08;;;;;;;-142.91;100.00;56616.03;5015352;28;20283;-70
2024/01/06 01:58:18;;;;;;;55.75;29.38;;;;;;;23.25;100.00;56616.03;5016161;28;20339;-70
2024/01/06 02:00:46;;;;;;;67.85;30.52;;;;;;;;;;5013900;28;20291;-70
2024/01/06 02:03:14;;;;;;;65.85;34.58;;;;;;;23.25;100.00;56616.03;5012774;28;20204;-70
2024/01/06 02:05:41;;;;;;;57.83;31.77;;;;;;;;;;5009653;28;20228;-70
2024/01/06 02:08:07;;;;;;;73.93;33.83;;;;;;;;;;5014005;28;20295;-70
2024/01/06 02:10:34;;;;;;;69.70;35.78;;;;;;;23.25;100.00;56616.03;5011407;28;20231;-70
2024/01/06 02:13:09;;;;;;;75.53;35.20;;;;;;;23.25;100.00;56616.03;5013869;28;20240;-70
2024/01/06 02:15:35;;;;;;;72.07;37.30;;;;;;;23.25;100.00;56616.03;5010634;28;20230;-70
2024/01/06 02:18:03;;;;;;;70.18;35.92;;;;;;;;;;5014811;28;20564;-70
2024/01/06 02:20:31;;;;;;;72.90;36.60;;;;;;;23.25;100.00;56616.03;5012585;28;20318;-70
2024/01/06 02:23:00;;;;;;;65.22;34.25;;;;;;;;;;5011749;28;20287;-70
2024/01/06 02:25:27;;;;;;;81.30;36.13;;;;;;;;;;5011638;28;20223;-70
2024/01/06 02:27:53;;;;;;;69.68;35.67;;;;;;;23.25;100.00;56616.03;5012974;28;20291;-70
2024/01/06 02:30:20;;;;;;;73.57;36.00;;;;;;;23.25;100.00;56616.03;5010442;28;20286;-70
2024/01/06 02:32:47;;;;;;;69.07;34.33;;;;;;;;;;5012352;28;20200;-70
2024/01/06 02:35:14;;;;;;;68.97;35.13;;;;;;;23.25;100.00;56616.03;5020843;28;20196;-71
2024/01/06 02:37:40;;;;;;;61.47;34.28;;;;;;;;;;5013287;28;20291;-71
2024/01/06 02:40:09;;;;;;;88.45;38.00;;;;;;;;;;5012591;28;20926;-70
2024/01/06 02:42:36;;;;;;;63.90;35.97;;;;;;;23.25;100.00;56616.03;5020952;28;20286;-70
2024/01/06 02:45:02;;;;;;;75.45;36.03;;;;;;;;;;5013042;28;20323;-70
2024/01/06 02:47:29;;;;;;;70.55;34.67;;;;;;;-142.91;100.00;56616.03;5017409;28;20283;-71
2024/01/06 02:49:56;;;;;;;72.60;34.88;;;;;;;;;;5017370;28;20330;-70
2024/01/06 02:52:23;;;;;;;73.78;36.60;;;;;;;-142.91;100.00;56616.03;5019803;28;20310;-70
2024/01/06 02:54:50;;;;;;;71.20;35.03;;;;;;;-142.91;100.00;56616.03;5013429;28;20197;-70
2024/01/06 02:57:18;;;;;;;71.32;35.35;;;;;;;-142.91;100.00;56616.03;5017433;28;20299;-70
2024/01/06 02:59:44;;;;;;;62.58;35.53;;;;;;;;;;5016079;28;20304;-70
2024/01/06 03:02:11;;;;;;;72.03;34.00;;;;;;;;;;5019147;28;20295;-70
2024/01/06 03:04:38;;;;;;;74.65;35.78;;;;;;;;;;5015578;28;20320;-70
2024/01/06 03:07:04;;;;;;;66.57;34.85;;;;;;;;;;5017695;28;20296;-69
2024/01/06 03:09:31;;;;;;;66.95;34.58;;;;;;;;;;5008730;28;20209;-69
2024/01/06 03:11:57;;;;;;;66.38;35.28;;;;;;;23.25;100.00;56616.03;5014238;28;20295;-69
2024/01/06 03:14:25;;;;;;;72.45;33.70;;;;;;;23.25;100.00;56616.03;5017473;28;21647;-69
2024/01/06 03:16:52;;;;;;;61.17;31.55;;;;;;;-142.91;100.00;56616.03;5011465;28;20326;-70
2024/01/06 03:19:19;;;;;;;61.05;32.22;;;;;;;23.25;100.00;56616.03;5019719;28;20303;-69
2024/01/06 03:21:45;;;;;;;67.40;33.33;;;;;;;23.25;100.00;56616.03;5013954;28;20312;-69
2024/01/06 03:24:12;;;;;;;71.95;33.03;;;;;;;-142.91;100.00;56616.03;5015643;28;20318;-69
2024/01/06 03:26:38;;;;;;;58.80;32.95;;;;;;;;;;5018946;28;20701;-70
2024/01/06 03:29:06;;;;;;;59.80;30.90;;;;;;;23.25;100.00;56616.03;5017844;28;20575;-69
2024/01/06 03:31:33;;;;;;;64.88;30.77;;;;;;;;;;5010875;28;20231;-70
2024/01/06 03:34:00;;;;;;;68.72;32.03;;;;;;;23.25;100.00;56616.03;5013003;28;20286;-69
2024/01/06 03:36:26;;;;;;;62.92;31.65;;;;;;;;;;5022415;28;21000;-69
2024/01/06 03:38:53;;;;;;;68.22;31.50;;;;;;;;;;5016131;28;20236;-69
2024/01/06 03:41:19;;;;;;;67.90;31.30;;;;;;;-142.91;100.00;56616.03;5015259;28;20762;-69
2024/01/06 03:43:46;;;;;;;58.05;31.40;;;;;;;;;;5017878;28;20299;-71
2024/01/06 03:46:12;;;;;;;56.47;29.90;;;;;;;;;;5016500;28;20292;-70
2024/01/06 03:48:40;;;;;;;60.88;30.98;;;;;;;;;;5014298;28;20286;-70
2024/01/06 03:51:07;;;;;;;56.22;31.58;;;;;;;-142.91;100.00;56616.03;5011990;28;20799;-70
2024/01/06 03:53:33;;;;;;;67.60;31.80;;;;;;;;;;5013174;28;20282;-71
2024/01/06 03:56:00;;;;;;;66.53;33.35;;;;;;;23.25;100.00;56616.03;5020484;28;20219;-71
2024/01/06 03:58:27;;;;;;;53.35;31.52;;;;;;;-142.91;100.00;56616.03;5016343;28;20231;-70
2024/01/06 04:00:53;;;;;;;60.88;30.75;;;;;;;-142.91;100.00;56616.03;5016945;28;20657;-70
2024/01/06 04:03:20;;;;;;;56.17;30.02;;;;;;;23.25;100.00;56616.03;5018520;28;20282;-70
2024/01/06 04:05:48;;;;;;;50.88;30.05;;;;;;;;;;5018381;28;20311;-70
2024/01/06 04:08:14;;;;;;;67.30;29.25;;;;;;;;;;5025065;28;20281;-70
2024/01/06 04:10:41;;;;;;;54.30;27.25;;;;;;;-142.91;100.00;56616.03;5023608;28;20691;-70
2024/01/06 04:13:07;;;;;;;64.20;30.40;;;;;;;;;;5017460;28;20204;-70
2024/01/06 04:15:34;;;;;;;61.83;32.00;;;;;;;23.25;100.00;56616.03;5019391;28;20295;-69
2024/01/06 04:18:02;;;;;;;68.20;30.92;;;;;;;;;;5018667;28;20294;-69
2024/01/06 04:20:29;;;;;;;57.53;30.60;;;;;;;23.25;100.00;56616.03;5021796;28;20303;-69
2024/01/06 04:22:57;;;;;;;57.50;29.23;;;;;;;;;;5020963;28;20740;-69
2024/01/06 04:25:23;;;;;;;57.97;31.17;;;;;;;-142.91;100.00;56616.03;5020770;28;20350;-70
2024/01/06 04:27:50;;;;;;;60.83;30.42;;;;;;;;;;5020543;28;20228;-69
2024/01/06 04:30:16;;;;;;;64.50;31.27;;;;;;;;;;5024690;28;20231;-69
2024/01/06 04:32:43;;;;;;;59.13;32.10;;;;;;;;;;5025219;28;20291;-69
2024/01/06 04:35:11;;;;;;;55.00;29.52;;;;;;;23.41;100.00;56616.03;5020280;28;20200;-69
2024/01/06 04:37:37;;;;;;;54.33;29.95;;;;;;;;;;5021262;28;20291;-69
2024/01/06 04:40:07;;;;;;;59.83;30.55;;;;;;;23.25;100.00;56616.03;5024019;28;21733;-70
2024/01/06 04:42:34;;;;;;;60.65;28.70;;;;;;;;;;5025716;28;20212;-69
2024/01/06 04:45:00;;;;;;;55.17;28.80;;;;;;;;;;5022362;28;20323;-69
2024/01/06 04:47:27;;;;;;;55.78;29.20;;;;;;;-142.91;100.00;56616.03;5026478;28;20294;-70
2024/01/06 04:49:54;;;;;;;59.47;27.08;;;;;;;;;;5026401;28;20262;-69
2024/01/06 04:52:20;;;;;;;54.40;27.60;;;;;;;-142.91;100.00;56616.03;5028789;28;20294;-70
2024/01/06 04:54:47;;;;;;;45.55;27.13;;;;;;;-142.91;100.00;56616.03;5027069;28;21041;-70
2024/01/06 04:57:15;;;;;;;51.55;27.40;;;;;;;23.25;100.00;56616.03;5027411;28;20295;-70
2024/01/06 04:59:42;;;;;;;54.85;28.00;;;;;;;;;;5023664;28;20250;-70
2024/01/06 05:02:08;;;;;;;55.55;28.58;;;;;;;;;;5024930;28;20230;-70
2024/01/06 05:04:35;;;;;;;47.10;26.55;;;;;;;;;;5023033;28;20322;-70
2024/01/06 05:07:01;;;;;;;53.72;27.02;;;;;;;23.26;100.00;56616.03;5020699;28;20308;-70
2024/01/06 05:09:28;;;;;;;56.75;28.90;;;;;;;-142.91;100.00;56616.03;5022988;28;20619;-70
2024/01/06 05:11:55;;;;;;;52.25;26.05;;;;;;;-142.91;100.00;56616.03;5020842;28;20242;-70
2024/01/06 05:14:22;;;;;;;51.47;27.83;;;;;;;-142.91;100.00;56616.03;5015585;28;20283;-70
2024/01/06 05:16:49;;;;;;;53.58;27.85;;;;;;;;;;5020790;28;20673;-70
2024/01/06 05:19:19;;;;;;;53.28;26.05;;;;;;;23.25;100.00;56616.03;5021020;28;20279;-70
2024/01/06 05:21:46;;;;;;;47.33;25.40;;;;;;;;;;5015438;28;20224;-70
2024/01/06 05:24:12;;;;;;;45.83;25.55;;;;;;;23.25;100.00;56616.03;5020463;28;20303;-70
2024/01/06 05:26:39;;;;;;;50.33;26.95;;;;;;;23.25;100.00;56616.03;5017503;28;20279;-70
2024/01/06 05:29:06;;;;;;;45.53;25.40;;;;;;;23.25;100.00;56616.03;5015426;28;20599;-70
2024/01/06 05:31:34;;;;;;;47.00;25.25;;;;;;;-142.91;100.00;56616.03;5019924;28;20295;-70
2024/01/06 05:34:01;;;;;;;44.10;26.10;;;;;;;23.25;100.00;56616.03;5017121;28;20303;-70
2024/01/06 05:36:27;;;;;;;58.00;27.08;;;;;;;-142.91;100.00;56616.03;5018428;28;20690;-70
2024/01/06 05:38:53;;;;;;;55.63;28.35;;;;;;;-142.91;100.00;56616.03;5017171;28;20287;-70
2024/01/06 05:41:19;;;;;;;56.83;26.05;;;;;;;-142.91;100.00;56616.03;5015966;28;20206;-70
2024/01/06 05:43:46;;;;;;;53.58;25.70;;;;;;;-142.91;100.00;56616.03;5023057;28;20295;-70
2024/01/06 05:46:13;;;;;;;40.55;21.20;;;;;;;-142.91;100.00;56616.03;5017529;28;20315;-70
2024/01/06 05:48:41;;;;;;;42.72;23.45;;;;;;;-142.91;100.00;56616.03;5016540;28;20231;-69
2024/01/06 05:51:07;;;;;;;55.70;26.63;;;;;;;-142.91;100.00;56616.03;5016850;28;20322;-69
2024/01/06 05:53:34;;;;;;;44.35;24.27;;;;;;;23.25;100.00;56616.03;5016200;28;20295;-71
2024/01/06 05:56:01;;;;;;;36.50;21.45;;;;;;;23.25;100.00;56616.03;5020286;28;20292;-71
2024/01/06 05:58:27;;;;;;;31.73;18.40;;;;;;;;;;5015912;28;20294;-71
2024/01/06 06:00:54;;;;;;;28.73;15.38;;;;;;;-142.91;100.00;56616.03;5018846;28;20304;-71
2024/01/06 06:03:20;;;;;;;18.95;12.10;;;;;;;-142.91;100.00;56616.03;5019311;28;20291;-70
2024/01/06 06:05:48;;;;;;;24.73;13.73;;;;;;;-142.91;100.00;56616.03;5024636;28;20897;-70
2024/01/06 06:08:15;;;;;;;27.73;15.63;;;;;;;23.27;100.00;56616.03;5013985;28;20296;-70
2024/01/06 06:10:51;;;;;;;17.73;11.75;;;;;;;23.25;100.00;56616.03;5013381;28;20283;-70
2024/01/06 06:13:18;;;;;;;16.33;11.90;;;;;;;-142.91;100.00;56616.03;5017018;28;20705;-71
2024/01/06 06:15:45;;;;;;;23.30;12.57;;;;;;;;;;5016935;28;20204;-71
2024/01/06 06:18:11;;;;;;;21.60;12.73;;;;;;;;;;5019508;28;20290;-70
2024/01/06 06:20:38;;;;;;;28.88;15.77;;;;;;;;;;5012434;28;20248;-69
2024/01/06 06:23:06;;;;;;;30.75;17.25;;;;;;;;;;5011789;28;20200;-70
2024/01/06 06:25:32;;;;;;;35.72;17.23;;;;;;;-142.91;100.00;56616.03;5017396;28;20322;-71
2024/01/06 06:27:59;;;;;;;34.35;16.92;;;;;;;;;;5022084;28;20295;-69
2024/01/06 06:30:25;;;;;;;48.47;24.35;;;;;;;;;;5020659;28;20282;-69
2024/01/06 06:32:52;;;;;;;36.17;18.73;;;;;;;;;;5011360;28;20200;-70
2024/01/06 06:35:18;;;;;;;37.53;20.75;;;;;;;;;;5019245;28;20310;-70
2024/01/06 06:37:45;;;;;;;35.22;19.38;;;;;;;-142.91;100.00;56616.03;5017708;28;20299;-70
2024/01/06 06:40:13;;;;;;;33.53;17.00;;;;;;;23.25;100.00;56616.03;5013749;28;20689;-70
2024/01/06 06:42:40;;;;;;;29.35;17.85;;;;;;;23.29;100.00;56616.03;5010054;28;20293;-70
2024/01/06 06:45:07;;;;;;;28.40;16.27;;;;;;;23.25;100.00;56616.03;5011747;28;20310;-70
2024/01/06 06:47:34;;;;;;;23.60;12.00;;;;;;;23.25;100.00;56616.03;5010255;28;20289;-71
2024/01/06 06:50:01;;;;;;;28.25;13.88;;;;;;;23.25;100.00;56616.03;5010885;28;20319;-70
2024/01/06 06:52:27;;;;;;;29.45;16.30;;;;;;;23.25;100.00;56616.03;5015902;28;20208;-70
2024/01/06 06:54:54;;;;;;;31.42;17.10;;;;;;;23.25;100.00;56616.03;5014054;28;20204;-70
2024/01/06 06:57:23;;;;;;;30.40;18.05;;;;;;;23.25;100.00;56616.03;5016399;28;20313;-69
2024/01/06 06:59:50;;;;;;;41.88;19.38;;;;;;;23.25;100.00;56616.03;5016891;28;20200;-71
2024/01/06 07:02:17;;;;;;;30.35;17.55;;;;;;;23.25;100.00;56616.03;5013588;28;20231;-70
2024/01/06 07:04:43;;;;;;;27.27;15.85;;;;;;;23.25;100.00;56616.03;5015527;28;20676;-71
2024/01/06 07:07:10;;;;;;;49.63;23.33;;;;;;;23.25;100.00;56616.03;5018873;28;20318;-69
2024/01/06 07:09:37;;;;;;;41.40;23.67;;;;;;;23.25;100.00;56616.03;5012973;28;20761;-70
2024/01/06 07:12:04;;;;;;;45.42;23.92;;;;;;;-142.91;100.00;56616.03;5014644;28;20875;-70
2024/01/06 07:14:32;;;;;;;41.53;23.90;;;;;;;23.25;100.00;56616.03;5015274;28;20746;-68
2024/01/06 07:16:58;;;;;;;47.60;26.20;;;;;;;23.25;100.00;56616.03;5021031;28;20220;-69
2024/01/06 07:19:25;;;;;;;43.65;25.23;;;;;;;23.25;100.00;56616.03;5018382;28;20771;-70
2024/01/06 07:21:52;;;;;;;42.38;23.55;;;;;;;23.25;100.00;56616.03;5018825;28;20310;-69
2024/01/06 07:24:18;;;;;;;58.10;24.10;;;;;;;23.25;100.00;56616.03;5020834;28;20390;-69
2024/01/06 07:26:45;;;;;;;44.38;23.85;;;;;;;23.25;100.00;56616.03;5018860;28;20800;-70
2024/01/06 07:29:12;;;;;;;42.67;24.83;;;;;;;23.25;100.00;56616.03;5016018;28;20208;-70
2024/01/06 07:31:40;;;;;;;48.80;28.25;;;;;;;23.25;100.00;56616.03;5022315;28;20310;-69
2024/01/06 07:34:07;;;;;;;105.30;48.13;;;;;;;23.25;100.00;56616.03;5015412;28;20204;-70
2024/01/06 07:36:33;;;;;;;69.03;33.90;;;;;;;;;;5012758;28;20205;-71
2024/01/06 07:39:00;;;;;;;69.65;35.42;;;;;;;23.25;100.00;56616.03;5013386;28;20253;-70
2024/01/06 07:41:26;;;;;;;53.13;30.10;;;;;;;23.25;100.00;56616.03;5011490;28;20762;-69
2024/01/06 07:43:54;;;;;;;57.10;29.58;;;;;;;;;;5016566;28;20295;-71
2024/01/06 07:46:20;;;;;;;48.22;25.65;;;;;;;23.25;100.00;56616.03;5015645;28;20238;-70
2024/01/06 07:48:48;;;;;;;53.30;28.52;;;;;;;23.25;100.00;56616.03;5017314;28;20326;-70
2024/01/06 07:51:15;;;;;;;47.45;24.70;;;;;;;;;;5013760;28;20327;-70
2024/01/06 07:53:42;;;;;;;94.05;46.78;;;;;;;;;;5016979;28;20229;-70
2024/01/06 07:56:08;;;;;;;48.65;27.90;;;;;;;23.25;100.00;56616.03;5010805;28;20207;-69
2024/01/06 07:58:35;;;;;;;53.50;28.58;;;;;;;23.25;100.00;56616.03;5015509;28;20769;-69
2024/01/06 08:01:02;;;;;;;63.88;33.78;;;;;;;23.25;100.00;56616.03;5016488;28;20311;-70
2024/01/06 08:03:29;;;;;;;71.32;39.63;;;;;;;23.25;100.00;56616.03;5015314;28;20208;-70
2024/01/06 08:05:57;;;;;;;91.70;46.17;;;;;;;23.25;100.00;56616.03;5012485;28;20227;-70
2024/01/06 08:08:23;;;;;;;96.07;49.08;;;;;;;23.25;100.00;56616.03;5019426;28;20645;-70
2024/01/06 08:10:50;;;;;;;84.05;44.80;;;;;;;;;;5016627;28;20303;-69
2024/01/06 08:13:16;;;;;;;83.45;42.42;;;;;;;23.25;100.00;56616.03;5015848;28;20736;-70
2024/01/06 08:15:43;;;;;;;75.78;41.30;;;;;;;-142.91;100.00;56616.03;5018683;28;20741;-70
2024/01/06 08:18:10;;;;;;;73.40;39.00;;;;;;;23.25;100.00;56616.03;5018538;28;20291;-71
2024/01/06 08:20:36;;;;;;;71.80;39.55;;;;;;;23.25;100.00;56616.03;5012029;28;20315;-71
2024/01/06 08:23:04;;;;;;;88.38;40.58;;;;;;;23.25;100.00;56616.03;5005481;28;20338;-75
2024/01/06 08:25:31;;;;;;;72.13;40.80;;;;;;;23.25;100.00;56616.03;5006731;28;20295;-67
2024/01/06 08:27:58;;;;;;;81.60;40.20;;;;;;;23.25;100.00;56616.03;5013277;28;20314;-69
2024/01/06 08:30:24;;;;;;;78.72;40.47;;;;;;;23.25;100.00;56616.03;5012817;28;20678;-70
2024/01/06 08:32:52;;;;;;;72.55;39.00;;;;;;;23.25;100.00;56616.03;5017368;28;20199;-70
2024/01/06 08:35:19;;;;;;;83.68;40.28;;;;;;;-142.91;100.00;56616.03;5016386;28;20216;-68
2024/01/06 08:37:46;;;;;;;76.53;40.80;;;;;;;-142.91;100.00;56616.03;5013601;28;20199;-69
2024/01/06 08:40:14;;;;;;;75.60;39.78;;;;;;;-142.91;100.00;56616.03;5009237;28;20286;-68
2024/01/06 08:42:40;;;;;;;71.47;40.67;;;;;;;23.25;100.00;56616.03;5015798;28;20235;-70
2024/01/06 08:45:07;;;;;;;80.65;41.20;;;;;;;23.25;100.00;56616.03;5010586;28;20651;-71
2024/01/06 08:47:34;;;;;;;81.35;43.25;;;;;;;23.25;100.00;56616.03;5018587;28;20314;-69
2024/01/06 08:50:00;;;;;;;67.45;38.58;;;;;;;23.25;100.00;56616.03;5019204;28;20266;-68
2024/01/06 08:52:27;;;;;;;78.65;38.85;;;;;;;23.25;100.00;56616.03;5014498;28;20296;-70
2024/01/06 08:54:54;;;;;;;67.20;38.00;;;;;;;23.25;100.00;56616.03;5010309;28;20295;-69
2024/01/06 08:57:21;;;;;;;73.75;38.03;;;;;;;23.25;100.00;56616.03;5013822;28;20201;-73
2024/01/06 08:59:48;;;;;;;66.95;36.55;;;;;;;23.25;100.00;56616.03;5019777;28;22165;-72
2024/01/06 09:02:15;;;;;;;72.10;37.13;;;;;;;-142.91;100.00;56616.03;5007107;28;20335;-73
2024/01/06 09:04:41;;;;;;;62.92;35.83;;;;;;;23.25;100.00;56616.03;4991829;28;20303;-71
2024/01/06 09:07:08;;;;;;;59.17;32.08;;;;;;;23.25;100.00;56616.03;5015892;28;20315;-71
2024/01/06 09:09:35;;;;;;;48.20;27.73;;;;;;;-142.91;100.00;56616.03;5010728;28;20292;-70
2024/01/06 09:12:01;;;;;;;47.20;26.00;;;;;;;-142.91;100.00;56616.03;5012932;28;20683;-70
2024/01/06 09:14:30;;;;;;;35.88;20.70;;;;;;;-142.91;100.00;56616.03;5020585;28;20275;-72
2024/01/06 09:16:56;;;;;;;34.85;22.48;;;;;;;-142.91;100.00;56616.03;5010861;28;20235;-73
2024/01/06 09:19:23;;;;;;;39.28;20.17;;;;;;;-142.91;100.00;56616.03;5019307;28;20287;-70
2024/01/06 09:21:49;;;;;;;33.13;17.80;;;;;;;23.25;100.00;56616.03;5019757;28;20694;-68
2024/01/06 09:24:16;;;;;;;24.92;14.95;;;;;;;23.25;100.00;56616.03;5018147;28;20294;-72
2024/01/06 09:26:44;;;;;;;23.55;13.90;;;;;;;-142.91;100.00;56616.03;5018769;28;20600;-69
2024/01/06 09:29:10;;;;;;;25.38;14.73;;;;;;;23.25;100.00;56616.03;5014409;28;20232;-70
2024/01/06 09:31:38;;;;;;;24.48;14.85;;;;;;;-142.91;100.00;56616.03;5017579;28;20773;-72
2024/01/06 09:34:06;;;;;;;18.38;13.48;;;;;;;23.25;100.00;56616.03;5016646;28;20525;-71
2024/01/06 09:36:32;;;;;;;20.45;14.60;;;;;;;23.25;100.00;56616.03;5018135;28;20370;-71
2024/01/06 09:38:59;;;;;;;22.20;14.15;;;;;;;23.25;100.00;56616.03;5017194;28;20288;-70
2024/01/06 09:41:25;;;;;;;35.60;15.55;;;;;;;23.25;100.00;56616.03;5016078;28;21987;-70
2024/01/06 09:43:52;;;;;;;34.15;16.67;;;;;;;23.25;100.00;56616.03;5017738;28;20664;-69
2024/01/06 09:46:25;;;;;;;27.50;15.27;;;;;;;-142.91;100.00;56616.03;5020209;28;20314;-72
2024/01/06 09:48:54;;;;;;;27.58;15.60;;;;;;;;;;5018143;28;20218;-70
2024/01/06 09:51:21;;;;;;;27.48;15.18;;;;;;;23.25;100.00;56616.03;5020994;28;20729;-70
2024/01/06 09:53:50;;;;;;;27.75;15.55;;;;;;;-142.91;100.00;56616.03;5020093;28;20227;-70
2024/01/06 09:56:17;;;;;;;20.48;12.07;;;;;;;23.25;100.00;56616.03;5016903;28;20287;-70
2024/01/06 09:58:45;;;;;;;21.67;10.07;;;;;;;-142.91;100.00;56616.03;5016086;28;20270;-70
2024/01/06 10:01:12;;;;;;;20.00;11.00;;;;;;;23.25;100.00;56616.03;5018134;28;20716;-68
2024/01/06 10:03:39;;;;;;;21.80;10.88;;;;;;;-142.91;100.00;56616.03;5019633;28;20204;-70
2024/01/06 10:06:09;;;;;;;23.15;12.05;;;;;;;-142.91;100.00;56616.03;5017398;28;20338;-69
2024/01/06 10:08:36;;;;;;;18.88;11.90;;;;;;;23.25;100.00;56616.03;5017274;28;20214;-70
2024/01/06 10:11:03;;;;;;;19.63;10.73;;;;;;;23.25;100.00;56616.03;5019146;28;20588;-70
2024/01/06 10:13:30;;;;;;;15.30;10.63;;;;;;;23.25;100.00;56616.03;5018229;28;20694;-72
2024/01/06 10:15:57;;;;;;;15.70;10.52;;;;;;;-142.91;100.00;56616.03;5019525;28;20302;-71
2024/01/06 10:18:25;;;;;;;11.77;9.95;;;;;;;23.25;100.00;56616.03;5015668;28;20315;-70
2024/01/06 10:20:53;;;;;;;19.48;11.63;;;;;;;-142.91;100.00;56616.03;5014644;28;20243;-72
2024/01/06 10:23:23;;;;;;;17.45;10.82;;;;;;;-142.91;100.00;56616.03;5016426;28;20275;-69
2024/01/06 10:25:53;;;;;;;15.70;11.13;;;;;;;-142.91;100.00;56616.03;5015073;28;20290;-71
2024/01/06 10:28:21;;;;;;;17.85;10.90;;;;;;;-142.91;100.00;56616.03;5015129;28;20285;-71
2024/01/06 10:30:48;;;;;;;17.08;10.40;;;;;;;23.25;100.00;56616.03;5010790;28;20684;-70
2024/01/06 10:33:15;;;;;;;14.55;9.43;;;;;;;-142.91;100.00;56616.03;5015076;28;20287;-69
2024/01/06 10:35:42;;;;;;;14.93;10.95;;;;;;;-142.91;100.00;56616.03;5007279;28;20291;-70
2024/01/06 10:38:08;;;;;;;18.35;10.65;;;;;;;-142.91;100.00;56616.03;5014401;28;20287;-71
2024/01/06 10:40:36;;;;;;;17.38;10.68;;;;;;;23.25;100.00;56616.03;5015786;28;20295;-71
2024/01/06 10:43:04;;;;;;;18.30;11.02;;;;;;;23.25;100.00;56616.03;5017627;28;20294;-69
2024/01/06 10:45:31;;;;;;;16.73;9.18;;;;;;;-142.91;100.00;56616.03;5018950;28;20290;-70
2024/01/06 10:47:58;;;;;;;7.32;6.57;;;;;;;23.25;100.00;56616.03;5013983;28;20713;-71
2024/01/06 10:50:26;;;;;;;13.80;6.53;;;;;;;23.25;100.00;56616.03;5017792;28;20322;-71
2024/01/06 10:52:55;;;;;;;27.65;8.77;;;;;;;23.25;100.00;56616.03;5017428;28;20740;-69
2024/01/06 10:55:23;;;;;;;18.30;8.23;;;;;;;23.25;100.00;56616.03;5016223;28;20283;-71
2024/01/06 10:57:53;;;;;;;10.43;7.85;;;;;;;23.25;100.00;56616.03;5017995;28;20222;-70
2024/01/06 11:00:21;;;;;;;10.63;7.13;;;;;;;-142.91;100.00;56616.03;5015452;28;20673;-70
2024/01/06 11:02:48;;;;;;;12.85;6.82;;;;;;;23.25;100.00;56616.03;5015565;28;20199;-71
2024/01/06 11:05:16;;;;;;;17.80;7.70;;;;;;;23.25;100.00;56616.03;5016987;28;20736;-72
2024/01/06 11:07:43;;;;;;;9.57;6.32;;;;;;;-142.91;100.00;56616.03;5020109;28;20281;-72
2024/01/06 11:10:15;;;;;;;13.20;7.00;;;;;;;-142.91;100.00;56616.03;5019600;28;20204;-71
2024/01/06 11:12:42;;;;;;;12.48;7.13;;;;;;;23.25;100.00;56616.03;5013251;28;20212;-71
2024/01/06 11:15:11;;;;;;;16.83;7.00;;;;;;;23.25;100.00;56616.03;5017923;28;20322;-73
2024/01/06 11:17:53;;;;;;;10.55;5.93;;;;;;;-142.91;100.00;56616.03;5018901;28;20214;-71
2024/01/06 11:20:21;;;;;;;16.75;8.13;;;;;;;23.25;100.00;56616.03;5016429;28;20209;-72
2024/01/06 11:22:48;;;;;;;13.07;7.78;;;;;;;23.25;100.00;56616.03;5015938;28;20214;-71
2024/01/06 11:25:16;;;;;;;17.63;9.82;;;;;;;23.25;100.00;56616.03;5015164;28;20410;-73
2024/01/06 11:27:44;;;;;;;18.40;8.82;;;;;;;23.25;100.00;56616.03;5016002;28;20322;-73
2024/01/06 11:30:21;;;;;;;12.23;8.82;;;;;;;23.25;100.00;56616.03;5015241;28;20214;-70
2024/01/06 11:32:47;;;;;;;16.98;7.80;;;;;;;-142.91;100.00;56616.03;5014900;28;20299;-70
2024/01/06 11:35:15;;;;;;;20.15;8.90;;;;;;;-142.91;100.00;56616.03;5020357;28;20620;-73
2024/01/06 11:37:54;;;;;;;14.95;8.95;;;;;;;-142.91;100.00;56616.03;5019644;28;20295;-72
2024/01/06 11:40:33;;;;;;;17.55;9.40;;;;;;;23.26;100.00;56616.03;5005148;28;20204;-69